Terminal Aerodrome Forecast
Issued by NWS Jacksonville, FL

Home | Current Version | Previous Version | Text Only | Print | Product List | Glossary On
Versions: 1 2 3 4 5 6 7 8 9 10 11 12 13 14 15 16 17 18 19 20 21
000
FTUS42 KJAX 052321
TAFJAX
TAF
KJAX 052321Z 0600/0624 15006KT P6SM VCSH SCT060 BKN110 OVC250
     FM060200 20003KT P6SM SCT100 BKN200
     FM061400 26006KT P6SM SCT030 BKN250
     FM062100 23008KT P6SM VCTS SCT040CB=

USA.gov is the U.S. government's official web portal to all federal, state and local government web resources and services.